sensor_id;sensor_type;location;lat;lon;timestamp;P1;durP1;ratioP1;P2;durP2;ratioP2
67074;SDS011;53990;50.334;18.640;2023-07-08T00:01:16;10.10;;;7.20;;
67074;SDS011;53990;50.334;18.640;2023-07-08T00:03:46;10.20;;;7.20;;
67074;SDS011;53990;50.334;18.640;2023-07-08T00:06:17;10.70;;;6.90;;
67074;SDS011;53990;50.334;18.640;2023-07-08T00:08:45;10.80;;;7.00;;
67074;SDS011;53990;50.334;18.640;2023-07-08T00:11:13;11.50;;;7.40;;
67074;SDS011;53990;50.334;18.640;2023-07-08T00:13:41;11.30;;;7.70;;
67074;SDS011;53990;50.334;18.640;2023-07-08T00:16:13;10.80;;;7.50;;
67074;SDS011;53990;50.334;18.640;2023-07-08T00:18:41;10.00;;;7.60;;
67074;SDS011;53990;50.334;18.640;2023-07-08T00:21:12;10.00;;;7.60;;
67074;SDS011;53990;50.334;18.640;2023-07-08T00:23:47;10.60;;;8.20;;
67074;SDS011;53990;50.334;18.640;2023-07-08T00:26:19;12.00;;;7.90;;
67074;SDS011;53990;50.334;18.640;2023-07-08T00:28:47;11.60;;;8.00;;
67074;SDS011;53990;50.334;18.640;2023-07-08T00:31:14;12.10;;;8.00;;
67074;SDS011;53990;50.334;18.640;2023-07-08T00:33:41;10.00;;;8.10;;
67074;SDS011;53990;50.334;18.640;2023-07-08T00:36:12;14.00;;;9.20;;
67074;SDS011;53990;50.334;18.640;2023-07-08T00:38:41;15.70;;;9.80;;
67074;SDS011;53990;50.334;18.640;2023-07-08T00:41:16;14.40;;;9.30;;
67074;SDS011;53990;50.334;18.640;2023-07-08T00:43:50;14.40;;;9.30;;
67074;SDS011;53990;50.334;18.640;2023-07-08T00:49:27;14.80;;;10.30;;
67074;SDS011;53990;50.334;18.640;2023-07-08T00:51:55;15.20;;;11.20;;
67074;SDS011;53990;50.334;18.640;2023-07-08T00:54:22;15.90;;;12.20;;
67074;SDS011;53990;50.334;18.640;2023-07-08T00:56:52;16.50;;;12.20;;
67074;SDS011;53990;50.334;18.640;2023-07-08T00:59:31;15.10;;;11.30;;
67074;SDS011;53990;50.334;18.640;2023-07-08T01:02:02;17.30;;;12.20;;
67074;SDS011;53990;50.334;18.640;2023-07-08T01:04:46;18.50;;;12.00;;
67074;SDS011;53990;50.334;18.640;2023-07-08T01:07:14;18.10;;;12.50;;
67074;SDS011;53990;50.334;18.640;2023-07-08T01:09:51;17.70;;;12.80;;
67074;SDS011;53990;50.334;18.640;2023-07-08T01:12:22;18.90;;;12.80;;
67074;SDS011;53990;50.334;18.640;2023-07-08T01:14:51;17.80;;;12.70;;
67074;SDS011;53990;50.334;18.640;2023-07-08T01:17:21;17.70;;;12.30;;
67074;SDS011;53990;50.334;18.640;2023-07-08T01:19:49;19.30;;;13.10;;
67074;SDS011;53990;50.334;18.640;2023-07-08T01:22:17;17.50;;;13.10;;
67074;SDS011;53990;50.334;18.640;2023-07-08T01:24:44;16.00;;;12.80;;
67074;SDS011;53990;50.334;18.640;2023-07-08T01:27:15;17.70;;;13.10;;
67074;SDS011;53990;50.334;18.640;2023-07-08T01:29:43;17.00;;;12.20;;
67074;SDS011;53990;50.334;18.640;2023-07-08T01:32:12;15.80;;;12.30;;
67074;SDS011;53990;50.334;18.640;2023-07-08T01:34:45;18.20;;;13.00;;
67074;SDS011;53990;50.334;18.640;2023-07-08T01:37:39;16.90;;;12.50;;
67074;SDS011;53990;50.334;18.640;2023-07-08T01:40:36;15.00;;;12.40;;
67074;SDS011;53990;50.334;18.640;2023-07-08T01:43:05;18.50;;;13.60;;
67074;SDS011;53990;50.334;18.640;2023-07-08T01:45:34;14.20;;;11.60;;
67074;SDS011;53990;50.334;18.640;2023-07-08T01:48:05;18.30;;;13.40;;
67074;SDS011;53990;50.334;18.640;2023-07-08T01:50:37;17.20;;;12.50;;
67074;SDS011;53990;50.334;18.640;2023-07-08T01:53:09;16.80;;;12.80;;
67074;SDS011;53990;50.334;18.640;2023-07-08T01:55:37;18.90;;;14.20;;
67074;SDS011;53990;50.334;18.640;2023-07-08T01:58:04;17.00;;;12.80;;
67074;SDS011;53990;50.334;18.640;2023-07-08T02:00:31;20.00;;;13.30;;
67074;SDS011;53990;50.334;18.640;2023-07-08T02:02:57;20.80;;;13.30;;
67074;SDS011;53990;50.334;18.640;2023-07-08T02:05:24;16.60;;;12.70;;
67074;SDS011;53990;50.334;18.640;2023-07-08T02:07:51;19.30;;;13.20;;
67074;SDS011;53990;50.334;18.640;2023-07-08T02:10:18;17.90;;;13.10;;
67074;SDS011;53990;50.334;18.640;2023-07-08T02:12:44;17.10;;;13.60;;
67074;SDS011;53990;50.334;18.640;2023-07-08T02:15:11;16.70;;;13.20;;
67074;SDS011;53990;50.334;18.640;2023-07-08T02:17:38;16.00;;;12.90;;
67074;SDS011;53990;50.334;18.640;2023-07-08T02:20:05;20.00;;;14.10;;
67074;SDS011;53990;50.334;18.640;2023-07-08T02:22:32;18.50;;;14.40;;
67074;SDS011;53990;50.334;18.640;2023-07-08T02:24:59;21.70;;;14.70;;
67074;SDS011;53990;50.334;18.640;2023-07-08T02:27:26;20.20;;;15.00;;
67074;SDS011;53990;50.334;18.640;2023-07-08T02:29:53;18.00;;;14.20;;
67074;SDS011;53990;50.334;18.640;2023-07-08T02:32:19;19.00;;;14.10;;
67074;SDS011;53990;50.334;18.640;2023-07-08T02:34:46;22.20;;;13.80;;
67074;SDS011;53990;50.334;18.640;2023-07-08T02:37:13;19.20;;;14.30;;
67074;SDS011;53990;50.334;18.640;2023-07-08T02:39:40;20.10;;;13.80;;
67074;SDS011;53990;50.334;18.640;2023-07-08T02:42:07;20.10;;;14.40;;
67074;SDS011;53990;50.334;18.640;2023-07-08T02:44:34;19.50;;;14.20;;
67074;SDS011;53990;50.334;18.640;2023-07-08T02:47:00;19.50;;;14.30;;
67074;SDS011;53990;50.334;18.640;2023-07-08T02:49:29;21.80;;;15.00;;
67074;SDS011;53990;50.334;18.640;2023-07-08T02:51:56;21.40;;;14.90;;
67074;SDS011;53990;50.334;18.640;2023-07-08T02:54:23;22.10;;;15.10;;
67074;SDS011;53990;50.334;18.640;2023-07-08T02:56:50;18.30;;;14.50;;
67074;SDS011;53990;50.334;18.640;2023-07-08T02:59:16;21.00;;;15.10;;
67074;SDS011;53990;50.334;18.640;2023-07-08T03:01:43;19.90;;;15.40;;
67074;SDS011;53990;50.334;18.640;2023-07-08T03:04:13;20.80;;;15.50;;
67074;SDS011;53990;50.334;18.640;2023-07-08T03:06:42;21.60;;;15.60;;
67074;SDS011;53990;50.334;18.640;2023-07-08T03:09:10;21.40;;;16.40;;
67074;SDS011;53990;50.334;18.640;2023-07-08T03:11:38;21.00;;;16.10;;
67074;SDS011;53990;50.334;18.640;2023-07-08T03:14:06;20.60;;;15.40;;
67074;SDS011;53990;50.334;18.640;2023-07-08T03:16:33;22.50;;;16.00;;
67074;SDS011;53990;50.334;18.640;2023-07-08T03:19:00;27.10;;;16.80;;
67074;SDS011;53990;50.334;18.640;2023-07-08T03:21:27;21.40;;;15.80;;
67074;SDS011;53990;50.334;18.640;2023-07-08T03:23:53;21.10;;;15.90;;
67074;SDS011;53990;50.334;18.640;2023-07-08T03:26:25;20.80;;;16.10;;
67074;SDS011;53990;50.334;18.640;2023-07-08T03:28:52;23.80;;;16.70;;
67074;SDS011;53990;50.334;18.640;2023-07-08T03:31:19;24.40;;;17.50;;
67074;SDS011;53990;50.334;18.640;2023-07-08T03:33:46;24.30;;;17.60;;
67074;SDS011;53990;50.334;18.640;2023-07-08T03:36:16;24.20;;;17.30;;
67074;SDS011;53990;50.334;18.640;2023-07-08T03:38:55;25.00;;;17.10;;
67074;SDS011;53990;50.334;18.640;2023-07-08T03:41:23;24.10;;;17.40;;
67074;SDS011;53990;50.334;18.640;2023-07-08T03:43:50;26.00;;;17.50;;
67074;SDS011;53990;50.334;18.640;2023-07-08T03:46:19;27.00;;;17.80;;
67074;SDS011;53990;50.334;18.640;2023-07-08T03:48:47;22.30;;;16.70;;
67074;SDS011;53990;50.334;18.640;2023-07-08T03:51:21;24.20;;;17.60;;
67074;SDS011;53990;50.334;18.640;2023-07-08T03:53:49;22.70;;;16.90;;
67074;SDS011;53990;50.334;18.640;2023-07-08T03:56:16;22.80;;;17.10;;
67074;SDS011;53990;50.334;18.640;2023-07-08T03:58:43;20.60;;;15.80;;
67074;SDS011;53990;50.334;18.640;2023-07-08T04:01:21;19.00;;;15.00;;
67074;SDS011;53990;50.334;18.640;2023-07-08T04:03:51;23.00;;;15.40;;
67074;SDS011;53990;50.334;18.640;2023-07-08T04:06:19;21.20;;;16.60;;
67074;SDS011;53990;50.334;18.640;2023-07-08T04:08:46;25.60;;;17.40;;
67074;SDS011;53990;50.334;18.640;2023-07-08T04:11:15;23.00;;;17.10;;
67074;SDS011;53990;50.334;18.640;2023-07-08T04:13:43;23.20;;;17.80;;
67074;SDS011;53990;50.334;18.640;2023-07-08T04:16:31;21.90;;;16.80;;
67074;SDS011;53990;50.334;18.640;2023-07-08T04:18:58;24.40;;;16.80;;
67074;SDS011;53990;50.334;18.640;2023-07-08T04:21:25;22.30;;;16.70;;
67074;SDS011;53990;50.334;18.640;2023-07-08T04:23:52;28.00;;;18.20;;
67074;SDS011;53990;50.334;18.640;2023-07-08T04:26:21;24.90;;;17.50;;
67074;SDS011;53990;50.334;18.640;2023-07-08T04:28:48;23.00;;;17.20;;
67074;SDS011;53990;50.334;18.640;2023-07-08T04:31:14;20.90;;;16.50;;
67074;SDS011;53990;50.334;18.640;2023-07-08T04:33:41;22.90;;;16.60;;
67074;SDS011;53990;50.334;18.640;2023-07-08T04:36:11;23.30;;;16.80;;
67074;SDS011;53990;50.334;18.640;2023-07-08T04:38:39;31.50;;;17.10;;
67074;SDS011;53990;50.334;18.640;2023-07-08T04:41:07;22.30;;;16.50;;
67074;SDS011;53990;50.334;18.640;2023-07-08T04:43:34;23.10;;;17.10;;
67074;SDS011;53990;50.334;18.640;2023-07-08T04:46:01;22.30;;;17.00;;
67074;SDS011;53990;50.334;18.640;2023-07-08T04:48:28;24.60;;;17.20;;
67074;SDS011;53990;50.334;18.640;2023-07-08T04:50:55;22.00;;;16.70;;
67074;SDS011;53990;50.334;18.640;2023-07-08T04:53:21;24.00;;;17.30;;
67074;SDS011;53990;50.334;18.640;2023-07-08T04:55:52;22.00;;;17.90;;
67074;SDS011;53990;50.334;18.640;2023-07-08T04:58:20;22.30;;;18.20;;
67074;SDS011;53990;50.334;18.640;2023-07-08T05:00:47;21.70;;;16.60;;
67074;SDS011;53990;50.334;18.640;2023-07-08T05:03:14;26.20;;;18.60;;
67074;SDS011;53990;50.334;18.640;2023-07-08T05:05:41;23.40;;;17.70;;
67074;SDS011;53990;50.334;18.640;2023-07-08T05:08:08;23.40;;;18.00;;
67074;SDS011;53990;50.334;18.640;2023-07-08T05:10:35;25.90;;;17.70;;
67074;SDS011;53990;50.334;18.640;2023-07-08T05:13:02;22.90;;;18.10;;
67074;SDS011;53990;50.334;18.640;2023-07-08T05:15:29;23.20;;;17.20;;
67074;SDS011;53990;50.334;18.640;2023-07-08T05:17:56;23.40;;;19.10;;
67074;SDS011;53990;50.334;18.640;2023-07-08T05:20:23;23.50;;;18.40;;
67074;SDS011;53990;50.334;18.640;2023-07-08T05:22:49;25.70;;;18.60;;
67074;SDS011;53990;50.334;18.640;2023-07-08T05:25:18;25.20;;;18.00;;
67074;SDS011;53990;50.334;18.640;2023-07-08T05:27:46;24.50;;;19.50;;
67074;SDS011;53990;50.334;18.640;2023-07-08T05:30:17;24.70;;;19.20;;
67074;SDS011;53990;50.334;18.640;2023-07-08T05:32:45;22.20;;;18.10;;
67074;SDS011;53990;50.334;18.640;2023-07-08T05:35:13;23.10;;;18.50;;
67074;SDS011;53990;50.334;18.640;2023-07-08T05:37:39;27.40;;;21.50;;
67074;SDS011;53990;50.334;18.640;2023-07-08T05:40:08;30.20;;;22.00;;
67074;SDS011;53990;50.334;18.640;2023-07-08T05:42:35;28.20;;;18.70;;
67074;SDS011;53990;50.334;18.640;2023-07-08T05:45:03;24.20;;;17.50;;
67074;SDS011;53990;50.334;18.640;2023-07-08T05:47:33;26.20;;;18.90;;
67074;SDS011;53990;50.334;18.640;2023-07-08T05:50:01;24.80;;;18.80;;
67074;SDS011;53990;50.334;18.640;2023-07-08T05:52:28;25.60;;;18.70;;
67074;SDS011;53990;50.334;18.640;2023-07-08T05:54:54;26.50;;;18.10;;
67074;SDS011;53990;50.334;18.640;2023-07-08T05:57:22;23.70;;;17.20;;
67074;SDS011;53990;50.334;18.640;2023-07-08T05:59:49;24.60;;;18.00;;
67074;SDS011;53990;50.334;18.640;2023-07-08T06:02:17;27.80;;;19.10;;
67074;SDS011;53990;50.334;18.640;2023-07-08T06:04:46;26.20;;;18.90;;
67074;SDS011;53990;50.334;18.640;2023-07-08T06:07:13;23.00;;;17.60;;
67074;SDS011;53990;50.334;18.640;2023-07-08T06:09:40;25.30;;;18.10;;
67074;SDS011;53990;50.334;18.640;2023-07-08T06:12:07;24.90;;;17.70;;
67074;SDS011;53990;50.334;18.640;2023-07-08T06:14:34;24.20;;;17.00;;
67074;SDS011;53990;50.334;18.640;2023-07-08T06:17:01;22.20;;;16.30;;
67074;SDS011;53990;50.334;18.640;2023-07-08T06:19:27;23.50;;;16.50;;
67074;SDS011;53990;50.334;18.640;2023-07-08T06:21:54;20.40;;;15.40;;
67074;SDS011;53990;50.334;18.640;2023-07-08T06:24:21;31.00;;;20.40;;
67074;SDS011;53990;50.334;18.640;2023-07-08T06:26:51;21.40;;;16.30;;
67074;SDS011;53990;50.334;18.640;2023-07-08T06:29:18;21.60;;;15.90;;
67074;SDS011;53990;50.334;18.640;2023-07-08T06:31:46;20.80;;;16.00;;
67074;SDS011;53990;50.334;18.640;2023-07-08T06:34:13;21.20;;;15.50;;
67074;SDS011;53990;50.334;18.640;2023-07-08T06:36:39;25.80;;;16.20;;
67074;SDS011;53990;50.334;18.640;2023-07-08T06:39:06;22.10;;;16.60;;
67074;SDS011;53990;50.334;18.640;2023-07-08T06:41:34;22.40;;;15.90;;
67074;SDS011;53990;50.334;18.640;2023-07-08T06:44:00;17.70;;;13.90;;
67074;SDS011;53990;50.334;18.640;2023-07-08T06:46:27;20.80;;;14.80;;
67074;SDS011;53990;50.334;18.640;2023-07-08T06:48:54;20.10;;;15.30;;
67074;SDS011;53990;50.334;18.640;2023-07-08T06:51:21;27.10;;;16.40;;
67074;SDS011;53990;50.334;18.640;2023-07-08T06:53:48;22.50;;;13.90;;
67074;SDS011;53990;50.334;18.640;2023-07-08T06:56:15;17.20;;;12.10;;
67074;SDS011;53990;50.334;18.640;2023-07-08T06:58:42;18.50;;;12.20;;
67074;SDS011;53990;50.334;18.640;2023-07-08T07:01:09;18.00;;;11.70;;
67074;SDS011;53990;50.334;18.640;2023-07-08T07:03:35;16.50;;;10.20;;
67074;SDS011;53990;50.334;18.640;2023-07-08T07:06:02;15.00;;;10.80;;
67074;SDS011;53990;50.334;18.640;2023-07-08T07:08:29;15.90;;;10.90;;
67074;SDS011;53990;50.334;18.640;2023-07-08T07:10:56;16.10;;;10.90;;
67074;SDS011;53990;50.334;18.640;2023-07-08T07:13:22;15.30;;;10.90;;
67074;SDS011;53990;50.334;18.640;2023-07-08T07:15:49;18.60;;;11.30;;
67074;SDS011;53990;50.334;18.640;2023-07-08T07:18:16;13.70;;;9.30;;
67074;SDS011;53990;50.334;18.640;2023-07-08T07:20:52;12.20;;;9.50;;
67074;SDS011;53990;50.334;18.640;2023-07-08T07:28:15;10.50;;;7.60;;
67074;SDS011;53990;50.334;18.640;2023-07-08T07:30:44;12.70;;;9.10;;
67074;SDS011;53990;50.334;18.640;2023-07-08T07:33:11;11.00;;;7.70;;
67074;SDS011;53990;50.334;18.640;2023-07-08T07:35:44;11.50;;;7.20;;
67074;SDS011;53990;50.334;18.640;2023-07-08T07:38:14;8.10;;;6.00;;
67074;SDS011;53990;50.334;18.640;2023-07-08T07:40:42;9.30;;;6.40;;
67074;SDS011;53990;50.334;18.640;2023-07-08T07:43:09;10.30;;;6.50;;
67074;SDS011;53990;50.334;18.640;2023-07-08T07:45:36;9.60;;;6.40;;
67074;SDS011;53990;50.334;18.640;2023-07-08T07:48:03;8.00;;;5.70;;
67074;SDS011;53990;50.334;18.640;2023-07-08T07:50:30;8.40;;;5.50;;
67074;SDS011;53990;50.334;18.640;2023-07-08T07:52:57;6.80;;;4.90;;
67074;SDS011;53990;50.334;18.640;2023-07-08T07:55:24;7.70;;;5.10;;
67074;SDS011;53990;50.334;18.640;2023-07-08T07:57:51;6.20;;;4.90;;
67074;SDS011;53990;50.334;18.640;2023-07-08T08:00:18;6.50;;;4.60;;
67074;SDS011;53990;50.334;18.640;2023-07-08T08:02:45;7.20;;;4.90;;
67074;SDS011;53990;50.334;18.640;2023-07-08T08:05:11;9.00;;;5.40;;
67074;SDS011;53990;50.334;18.640;2023-07-08T08:07:38;6.30;;;4.60;;
67074;SDS011;53990;50.334;18.640;2023-07-08T08:10:07;7.60;;;4.80;;
67074;SDS011;53990;50.334;18.640;2023-07-08T08:12:34;6.20;;;4.10;;
67074;SDS011;53990;50.334;18.640;2023-07-08T08:15:00;7.60;;;4.60;;
67074;SDS011;53990;50.334;18.640;2023-07-08T08:17:27;6.90;;;4.10;;
67074;SDS011;53990;50.334;18.640;2023-07-08T08:19:54;7.10;;;4.70;;
67074;SDS011;53990;50.334;18.640;2023-07-08T08:22:20;7.70;;;4.80;;
67074;SDS011;53990;50.334;18.640;2023-07-08T08:24:49;6.30;;;4.30;;
67074;SDS011;53990;50.334;18.640;2023-07-08T08:27:16;6.80;;;4.40;;
67074;SDS011;53990;50.334;18.640;2023-07-08T08:29:43;11.60;;;5.20;;
67074;SDS011;53990;50.334;18.640;2023-07-08T08:32:09;7.70;;;4.80;;
67074;SDS011;53990;50.334;18.640;2023-07-08T08:34:36;9.20;;;5.30;;
67074;SDS011;53990;50.334;18.640;2023-07-08T08:37:03;8.40;;;3.90;;
67074;SDS011;53990;50.334;18.640;2023-07-08T08:39:30;6.40;;;3.90;;
67074;SDS011;53990;50.334;18.640;2023-07-08T08:41:57;5.10;;;3.30;;
67074;SDS011;53990;50.334;18.640;2023-07-08T08:44:41;6.00;;;3.70;;
67074;SDS011;53990;50.334;18.640;2023-07-08T08:47:27;5.80;;;3.40;;
67074;SDS011;53990;50.334;18.640;2023-07-08T08:50:13;6.20;;;3.80;;
67074;SDS011;53990;50.334;18.640;2023-07-08T08:52:45;6.30;;;3.80;;
67074;SDS011;53990;50.334;18.640;2023-07-08T08:55:13;5.70;;;4.00;;
67074;SDS011;53990;50.334;18.640;2023-07-08T08:58:13;5.90;;;3.70;;
67074;SDS011;53990;50.334;18.640;2023-07-08T09:00:58;5.00;;;3.40;;
67074;SDS011;53990;50.334;18.640;2023-07-08T09:03:34;5.00;;;3.50;;
67074;SDS011;53990;50.334;18.640;2023-07-08T09:06:29;6.00;;;3.70;;
67074;SDS011;53990;50.334;18.640;2023-07-08T09:08:56;6.30;;;3.50;;
67074;SDS011;53990;50.334;18.640;2023-07-08T09:11:48;4.80;;;3.50;;
67074;SDS011;53990;50.334;18.640;2023-07-08T09:14:28;6.60;;;3.80;;
67074;SDS011;53990;50.334;18.640;2023-07-08T09:17:17;7.50;;;3.70;;
67074;SDS011;53990;50.334;18.640;2023-07-08T09:20:01;8.10;;;4.00;;
67074;SDS011;53990;50.334;18.640;2023-07-08T09:22:44;5.90;;;4.00;;
67074;SDS011;53990;50.334;18.640;2023-07-08T09:27:42;6.10;;;4.10;;
67074;SDS011;53990;50.334;18.640;2023-07-08T09:30:17;6.00;;;4.00;;
67074;SDS011;53990;50.334;18.640;2023-07-08T09:32:46;6.30;;;4.20;;
67074;SDS011;53990;50.334;18.640;2023-07-08T09:37:50;7.80;;;4.10;;
67074;SDS011;53990;50.334;18.640;2023-07-08T09:40:20;5.60;;;3.80;;
67074;SDS011;53990;50.334;18.640;2023-07-08T09:42:52;7.90;;;4.00;;
67074;SDS011;53990;50.334;18.640;2023-07-08T09:45:23;4.40;;;3.60;;
67074;SDS011;53990;50.334;18.640;2023-07-08T09:47:55;6.30;;;3.40;;
67074;SDS011;53990;50.334;18.640;2023-07-08T09:50:25;7.20;;;4.20;;
67074;SDS011;53990;50.334;18.640;2023-07-08T09:52:56;7.30;;;4.40;;
67074;SDS011;53990;50.334;18.640;2023-07-08T09:55:27;7.60;;;3.70;;
67074;SDS011;53990;50.334;18.640;2023-07-08T09:57:56;6.50;;;3.00;;
67074;SDS011;53990;50.334;18.640;2023-07-08T10:00:28;7.40;;;3.40;;
67074;SDS011;53990;50.334;18.640;2023-07-08T10:02:58;4.50;;;2.90;;
67074;SDS011;53990;50.334;18.640;2023-07-08T10:05:36;7.20;;;3.40;;
67074;SDS011;53990;50.334;18.640;2023-07-08T10:08:14;4.60;;;3.30;;
67074;SDS011;53990;50.334;18.640;2023-07-08T10:10:42;6.40;;;3.40;;
67074;SDS011;53990;50.334;18.640;2023-07-08T10:15:52;5.30;;;3.20;;
67074;SDS011;53990;50.334;18.640;2023-07-08T10:18:26;7.00;;;3.40;;
67074;SDS011;53990;50.334;18.640;2023-07-08T10:21:02;5.40;;;3.30;;
67074;SDS011;53990;50.334;18.640;2023-07-08T10:23:43;5.40;;;3.30;;
67074;SDS011;53990;50.334;18.640;2023-07-08T10:26:12;5.30;;;3.20;;
67074;SDS011;53990;50.334;18.640;2023-07-08T10:31:56;5.70;;;3.60;;
67074;SDS011;53990;50.334;18.640;2023-07-08T10:39:41;5.90;;;3.10;;
67074;SDS011;53990;50.334;18.640;2023-07-08T10:45:15;6.40;;;3.50;;
67074;SDS011;53990;50.334;18.640;2023-07-08T10:48:33;4.70;;;3.20;;
67074;SDS011;53990;50.334;18.640;2023-07-08T11:04:23;6.00;;;3.20;;
67074;SDS011;53990;50.334;18.640;2023-07-08T11:07:00;13.80;;;11.00;;
67074;SDS011;53990;50.334;18.640;2023-07-08T11:09:40;5.90;;;3.00;;
67074;SDS011;53990;50.334;18.640;2023-07-08T11:15:04;4.60;;;3.00;;
67074;SDS011;53990;50.334;18.640;2023-07-08T11:17:58;4.00;;;2.70;;
67074;SDS011;53990;50.334;18.640;2023-07-08T11:20:45;5.20;;;2.90;;
67074;SDS011;53990;50.334;18.640;2023-07-08T11:23:40;6.00;;;3.00;;
67074;SDS011;53990;50.334;18.640;2023-07-08T11:26:20;5.10;;;2.70;;
67074;SDS011;53990;50.334;18.640;2023-07-08T11:28:53;6.00;;;3.10;;
67074;SDS011;53990;50.334;18.640;2023-07-08T11:31:22;7.60;;;3.30;;
67074;SDS011;53990;50.334;18.640;2023-07-08T11:33:49;4.70;;;2.90;;
67074;SDS011;53990;50.334;18.640;2023-07-08T11:36:17;4.00;;;3.00;;
67074;SDS011;53990;50.334;18.640;2023-07-08T11:38:49;5.10;;;2.80;;
67074;SDS011;53990;50.334;18.640;2023-07-08T11:41:18;4.60;;;2.70;;
67074;SDS011;53990;50.334;18.640;2023-07-08T11:43:49;4.50;;;2.90;;
67074;SDS011;53990;50.334;18.640;2023-07-08T11:46:23;5.60;;;2.90;;
67074;SDS011;53990;50.334;18.640;2023-07-08T11:48:53;8.20;;;3.50;;
67074;SDS011;53990;50.334;18.640;2023-07-08T11:51:23;4.00;;;2.70;;
67074;SDS011;53990;50.334;18.640;2023-07-08T11:56:59;4.90;;;2.90;;
67074;SDS011;53990;50.334;18.640;2023-07-08T11:59:33;4.20;;;2.70;;
67074;SDS011;53990;50.334;18.640;2023-07-08T12:02:10;4.50;;;2.90;;
67074;SDS011;53990;50.334;18.640;2023-07-08T12:04:55;4.30;;;2.70;;
67074;SDS011;53990;50.334;18.640;2023-07-08T12:07:55;5.90;;;3.00;;
67074;SDS011;53990;50.334;18.640;2023-07-08T12:12:51;5.50;;;2.90;;
67074;SDS011;53990;50.334;18.640;2023-07-08T12:15:25;5.60;;;3.00;;
67074;SDS011;53990;50.334;18.640;2023-07-08T12:17:55;4.80;;;2.80;;
67074;SDS011;53990;50.334;18.640;2023-07-08T12:20:25;3.90;;;2.80;;
67074;SDS011;53990;50.334;18.640;2023-07-08T12:22:52;10.40;;;4.30;;
67074;SDS011;53990;50.334;18.640;2023-07-08T12:25:30;4.70;;;2.70;;
67074;SDS011;53990;50.334;18.640;2023-07-08T12:27:58;6.00;;;2.90;;
67074;SDS011;53990;50.334;18.640;2023-07-08T12:30:27;5.20;;;2.80;;
67074;SDS011;53990;50.334;18.640;2023-07-08T12:32:56;4.40;;;2.40;;
67074;SDS011;53990;50.334;18.640;2023-07-08T12:35:28;3.00;;;2.00;;
67074;SDS011;53990;50.334;18.640;2023-07-08T12:38:32;2.60;;;1.80;;
67074;SDS011;53990;50.334;18.640;2023-07-08T12:40:51;3.40;;;2.10;;
67074;SDS011;53990;50.334;18.640;2023-07-08T12:43:17;4.20;;;2.40;;
67074;SDS011;53990;50.334;18.640;2023-07-08T12:45:45;4.40;;;2.90;;
67074;SDS011;53990;50.334;18.640;2023-07-08T12:48:11;3.50;;;3.10;;
67074;SDS011;53990;50.334;18.640;2023-07-08T12:50:38;3.90;;;3.60;;
67074;SDS011;53990;50.334;18.640;2023-07-08T12:53:06;4.70;;;4.30;;
67074;SDS011;53990;50.334;18.640;2023-07-08T12:55:40;7.00;;;6.50;;
67074;SDS011;53990;50.334;18.640;2023-07-08T12:58:30;8.80;;;8.10;;
67074;SDS011;53990;50.334;18.640;2023-07-08T13:01:00;9.50;;;8.80;;
67074;SDS011;53990;50.334;18.640;2023-07-08T13:03:29;11.00;;;10.30;;
67074;SDS011;53990;50.334;18.640;2023-07-08T13:05:58;12.40;;;11.70;;
67074;SDS011;53990;50.334;18.640;2023-07-08T13:08:27;16.10;;;15.30;;
67074;SDS011;53990;50.334;18.640;2023-07-08T13:10:57;18.20;;;17.30;;
67074;SDS011;53990;50.334;18.640;2023-07-08T13:13:28;18.80;;;17.90;;
67074;SDS011;53990;50.334;18.640;2023-07-08T13:15:55;20.40;;;19.50;;
67074;SDS011;53990;50.334;18.640;2023-07-08T13:18:34;20.10;;;19.20;;
67074;SDS011;53990;50.334;18.640;2023-07-08T13:21:03;24.70;;;23.70;;
67074;SDS011;53990;50.334;18.640;2023-07-08T13:23:31;24.40;;;23.40;;
67074;SDS011;53990;50.334;18.640;2023-07-08T13:25:58;27.60;;;26.40;;
67074;SDS011;53990;50.334;18.640;2023-07-08T13:31:03;29.50;;;28.30;;
67074;SDS011;53990;50.334;18.640;2023-07-08T13:33:48;28.40;;;27.20;;
67074;SDS011;53990;50.334;18.640;2023-07-08T13:36:36;27.50;;;26.30;;
67074;SDS011;53990;50.334;18.640;2023-07-08T13:39:08;26.20;;;25.10;;
67074;SDS011;53990;50.334;18.640;2023-07-08T13:41:36;24.10;;;23.10;;
67074;SDS011;53990;50.334;18.640;2023-07-08T13:44:08;25.70;;;24.60;;
67074;SDS011;53990;50.334;18.640;2023-07-08T13:46:36;25.70;;;24.60;;
67074;SDS011;53990;50.334;18.640;2023-07-08T13:49:15;27.20;;;26.10;;
67074;SDS011;53990;50.334;18.640;2023-07-08T13:51:45;26.00;;;24.90;;
67074;SDS011;53990;50.334;18.640;2023-07-08T13:54:25;25.90;;;24.80;;
67074;SDS011;53990;50.334;18.640;2023-07-08T13:56:53;23.30;;;22.30;;
67074;SDS011;53990;50.334;18.640;2023-07-08T13:59:25;23.60;;;22.60;;
67074;SDS011;53990;50.334;18.640;2023-07-08T14:01:54;24.30;;;23.30;;
67074;SDS011;53990;50.334;18.640;2023-07-08T14:04:33;22.80;;;21.80;;
67074;SDS011;53990;50.334;18.640;2023-07-08T14:07:00;22.10;;;21.20;;
67074;SDS011;53990;50.334;18.640;2023-07-08T14:09:27;19.50;;;18.70;;
67074;SDS011;53990;50.334;18.640;2023-07-08T14:11:54;20.10;;;19.20;;
67074;SDS011;53990;50.334;18.640;2023-07-08T14:14:20;18.60;;;17.80;;
67074;SDS011;53990;50.334;18.640;2023-07-08T14:16:50;17.00;;;16.30;;
67074;SDS011;53990;50.334;18.640;2023-07-08T14:19:22;15.80;;;15.10;;
67074;SDS011;53990;50.334;18.640;2023-07-08T14:21:59;15.70;;;15.00;;
67074;SDS011;53990;50.334;18.640;2023-07-08T14:24:26;12.90;;;12.30;;
67074;SDS011;53990;50.334;18.640;2023-07-08T14:26:53;12.50;;;11.90;;
67074;SDS011;53990;50.334;18.640;2023-07-08T14:29:20;12.00;;;11.50;;
67074;SDS011;53990;50.334;18.640;2023-07-08T14:31:47;10.60;;;10.10;;
67074;SDS011;53990;50.334;18.640;2023-07-08T14:34:23;11.30;;;10.80;;
67074;SDS011;53990;50.334;18.640;2023-07-08T14:36:51;10.70;;;10.20;;
67074;SDS011;53990;50.334;18.640;2023-07-08T14:39:19;11.60;;;11.10;;
67074;SDS011;53990;50.334;18.640;2023-07-08T14:41:48;10.10;;;9.60;;
67074;SDS011;53990;50.334;18.640;2023-07-08T14:44:34;9.00;;;8.60;;
67074;SDS011;53990;50.334;18.640;2023-07-08T14:47:01;8.40;;;8.00;;
67074;SDS011;53990;50.334;18.640;2023-07-08T14:49:28;6.60;;;6.30;;
67074;SDS011;53990;50.334;18.640;2023-07-08T14:51:55;6.40;;;6.10;;
67074;SDS011;53990;50.334;18.640;2023-07-08T14:54:22;6.30;;;6.00;;
67074;SDS011;53990;50.334;18.640;2023-07-08T14:56:49;5.70;;;5.40;;
67074;SDS011;53990;50.334;18.640;2023-07-08T14:59:21;5.10;;;4.80;;
67074;SDS011;53990;50.334;18.640;2023-07-08T15:01:49;3.40;;;3.20;;
67074;SDS011;53990;50.334;18.640;2023-07-08T15:04:17;3.40;;;3.20;;
67074;SDS011;53990;50.334;18.640;2023-07-08T15:06:45;2.70;;;2.50;;
67074;SDS011;53990;50.334;18.640;2023-07-08T15:09:12;2.60;;;2.50;;
67074;SDS011;53990;50.334;18.640;2023-07-08T15:11:41;2.70;;;2.50;;
67074;SDS011;53990;50.334;18.640;2023-07-08T15:14:20;3.50;;;3.20;;
67074;SDS011;53990;50.334;18.640;2023-07-08T15:16:49;5.10;;;3.30;;
67074;SDS011;53990;50.334;18.640;2023-07-08T15:19:18;3.70;;;3.20;;
67074;SDS011;53990;50.334;18.640;2023-07-08T15:21:45;3.70;;;3.20;;
67074;SDS011;53990;50.334;18.640;2023-07-08T15:24:14;5.10;;;2.80;;
67074;SDS011;53990;50.334;18.640;2023-07-08T15:26:42;3.90;;;2.80;;
67074;SDS011;53990;50.334;18.640;2023-07-08T15:29:18;3.20;;;2.70;;